Sanpo Maru No.5 — JL6343 — position and weather

sailwx.info

Track history (hours):
 
Tides and Currents Weather Stations Pressure Air Temp Water Temp Dewpoint Dewpoint Depression Visibility Wind Speed Wind Dir Waves Ship Positions

Sanpo Maru No.5

Last reported at 2014-Jul-30 12:05 UTC. Time now 2014-Jul-30 13:11 UTC.
Position N 34°36' E 134°55'.

Length 71 m; draft 4.5 m.

Type: Ship. MMSI: 431500283.

Date/timePositionNaut miles runAvg speedWind from/ knotsBaromVisibWave heightAir tempDewpointWater temp
2014-Jul-30 12:05N 34°36' E 134°55'712.5
2014-Jul-30 11:33N 34°36' E 135°03'1111.3
2014-Jul-30 10:33N 34°25' E 135°03'1111.3
2014-Jul-30 09:33N 34°14' E 134°59'207 8.9
2014-Jul-29 10:10N 34°46' E 139°07'711.4
2014-Jul-29 09:33N 34°52' E 139°12'2110.2
2014-Jul-29 07:31N 35°04' E 139°33'1010.8
2014-Jul-29 06:33N 35°09' E 139°44'9 9.1
2014-Jul-29 05:33N 35°18' E 139°44'9 8.8
2014-Jul-29 04:33N 35°27' E 139°47'1010.3
2014-Jul-29 03:33N 35°30' E 139°59'3 2.8
2014-Jul-29 02:34N 35°30' E 140°02'0 0.0
2014-Jul-29 01:34N 35°30' E 140°02'0 0.0
2014-Jul-29 00:34N 35°30' E 140°02'0 0.0
2014-Jul-28 23:33N 35°30' E 140°02'2 1.5
2014-Jul-28 22:33N 35°30' E 140°00'0 0.0
2014-Jul-28 21:33N 35°30' E 140°00'0 0.0
2014-Jul-28 20:33N 35°30' E 140°00'0 0.0
2014-Jul-28 19:33N 35°30' E 140°00'0 0.0
2014-Jul-28 18:21N 35°30' E 140°00'0 0.0
2014-Jul-28 17:33N 35°30' E 140°00'0 0.0
2014-Jul-28 16:33N 35°30' E 140°00'0 0.0
2014-Jul-28 15:33N 35°30' E 140°00'0 0.0
2014-Jul-28 14:33N 35°30' E 140°00'0 0.0
2014-Jul-28 13:33N 35°30' E 140°00'0 0.0
2014-Jul-28 12:27N 35°30' E 140°00'0 0.0
2014-Jul-28 11:33N 35°30' E 140°00'0 0.0
2014-Jul-28 10:33N 35°30' E 140°00'0 0.0
2014-Jul-28 09:33N 35°30' E 140°00'0 0.0
2014-Jul-28 08:33N 35°30' E 140°00'0 0.0
2014-Jul-28 07:33N 35°30' E 140°00'1 1.0
2014-Jul-28 06:33N 35°30' E 140°01'1 0.9
2014-Jul-28 05:33N 35°30' E 140°02'0 0.0
2014-Jul-28 04:33N 35°30' E 140°02'0 0.0
2014-Jul-28 03:33N 35°30' E 140°02'0 0.0
2014-Jul-28 02:34N 35°30' E 140°02'0 0.0
2014-Jul-28 01:33N 35°30' E 140°02'0 0.0
2014-Jul-28 00:34N 35°30' E 140°02'3 2.6
2014-Jul-27 23:33N 35°31' E 139°59'5 5.4
2014-Jul-27 22:33N 35°29' E 139°53'1110.6
2014-Jul-27 21:34N 35°21' E 139°45'1010.5
2014-Jul-27 20:34N 35°11' E 139°46'1211.5
2014-Jul-27 19:34N 35°01' E 139°38'1311.5
2014-Jul-27 18:27N 34°53' E 139°25'4311.0
2014-Jul-27 14:33N 34°34' E 138°39'183 8.9
2014-Jul-26 18:04N 34°14' E 134°58'1912.1
2014-Jul-26 16:31N 34°33' E 135°02'29 0.7
2014-Jul-24 20:24N 34°07' E 134°46'1110.9
2014-Jul-24 19:21N 33°59' E 134°56'213 8.9
2014-Jul-23 19:30N 34°49' E 139°08'21 9.9
2014-Jul-23 17:22N 35°02' E 139°28'8 9.8
2014-Jul-23 16:33N 35°06' E 139°37'1010.0
2014-Jul-23 15:33N 35°12' E 139°46'10 9.9
2014-Jul-23 14:33N 35°22' E 139°43'1010.0
2014-Jul-23 13:33N 35°29' E 139°51'9 9.2
2014-Jul-23 12:33N 35°30' E 140°02'0 0.0
2014-Jul-23 11:33N 35°30' E 140°02'0 0.0
2014-Jul-23 10:33N 35°30' E 140°02'0 0.0
2014-Jul-23 09:33N 35°30' E 140°02'0 0.0
2014-Jul-23 08:33N 35°30' E 140°02'0 0.0
2014-Jul-23 07:33N 35°30' E 140°02'0 0.0
2014-Jul-23 06:33N 35°30' E 140°02'0 0.0
2014-Jul-23 05:33N 35°30' E 140°02'0 0.0
2014-Jul-23 04:33N 35°30' E 140°02'0 0.0
2014-Jul-23 03:33N 35°30' E 140°02'0 0.0
2014-Jul-23 02:33N 35°30' E 140°02'0 0.0
2014-Jul-23 01:33N 35°30' E 140°02'0 0.1
2014-Jul-23 00:33N 35°30' E 140°02'2 2.3
2014-Jul-22 23:33N 35°31' E 139°60'0 0.0
2014-Jul-22 22:33N 35°31' E 139°60'1010.3
2014-Jul-22 21:33N 35°26' E 139°49'1010.0
2014-Jul-22 20:33N 35°16' E 139°46'1110.9
2014-Jul-22 19:34N 35°05' E 139°44'1312.4
2014-Jul-22 18:31N 34°57' E 139°32'229 9.0
2014-Jul-21 17:09N 34°13' E 134°58'811.5
2014-Jul-21 16:30N 34°21' E 134°59'1111.1
2014-Jul-21 15:29N 34°32' E 135°02'8 7.6
2014-Jul-21 14:26N 34°35' E 134°53'  
Track history (hours):
 
Tides and Currents Weather Stations Pressure Air Temp Water Temp Dewpoint Dewpoint Depression Visibility Wind Speed Wind Dir Waves Ship Positions

Sanpo Maru No.5

Last reported at 2014-Jul-30 12:05 UTC. Time now 2014-Jul-30 13:11 UTC.
Position N 34°36' E 134°55'.

Length 71 m; draft 4.5 m.

Type: Ship. MMSI: 431500283.

Date/timePositionNaut miles runAvg speedWind from/ knotsBaromVisibWave heightAir tempDewpointWater temp
2014-Jul-30 12:05N 34°36' E 134°55'712.5
2014-Jul-30 11:33N 34°36' E 135°03'1111.3
2014-Jul-30 10:33N 34°25' E 135°03'1111.3
2014-Jul-30 09:33N 34°14' E 134°59'207 8.9
2014-Jul-29 10:10N 34°46' E 139°07'711.4
2014-Jul-29 09:33N 34°52' E 139°12'2110.2
2014-Jul-29 07:31N 35°04' E 139°33'1010.8
2014-Jul-29 06:33N 35°09' E 139°44'9 9.1
2014-Jul-29 05:33N 35°18' E 139°44'9 8.8
2014-Jul-29 04:33N 35°27' E 139°47'1010.3
2014-Jul-29 03:33N 35°30' E 139°59'3 2.8
2014-Jul-29 02:34N 35°30' E 140°02'0 0.0
2014-Jul-29 01:34N 35°30' E 140°02'0 0.0
2014-Jul-29 00:34N 35°30' E 140°02'0 0.0
2014-Jul-28 23:33N 35°30' E 140°02'2 1.5
2014-Jul-28 22:33N 35°30' E 140°00'0 0.0
2014-Jul-28 21:33N 35°30' E 140°00'0 0.0
2014-Jul-28 20:33N 35°30' E 140°00'0 0.0
2014-Jul-28 19:33N 35°30' E 140°00'0 0.0
2014-Jul-28 18:21N 35°30' E 140°00'0 0.0
2014-Jul-28 17:33N 35°30' E 140°00'0 0.0
2014-Jul-28 16:33N 35°30' E 140°00'0 0.0
2014-Jul-28 15:33N 35°30' E 140°00'0 0.0
2014-Jul-28 14:33N 35°30' E 140°00'0 0.0
2014-Jul-28 13:33N 35°30' E 140°00'0 0.0
2014-Jul-28 12:27N 35°30' E 140°00'0 0.0
2014-Jul-28 11:33N 35°30' E 140°00'0 0.0
2014-Jul-28 10:33N 35°30' E 140°00'0 0.0
2014-Jul-28 09:33N 35°30' E 140°00'0 0.0
2014-Jul-28 08:33N 35°30' E 140°00'0 0.0
2014-Jul-28 07:33N 35°30' E 140°00'1 1.0
2014-Jul-28 06:33N 35°30' E 140°01'1 0.9
2014-Jul-28 05:33N 35°30' E 140°02'0 0.0
2014-Jul-28 04:33N 35°30' E 140°02'0 0.0
2014-Jul-28 03:33N 35°30' E 140°02'0 0.0
2014-Jul-28 02:34N 35°30' E 140°02'0 0.0
2014-Jul-28 01:33N 35°30' E 140°02'0 0.0
2014-Jul-28 00:34N 35°30' E 140°02'3 2.6
2014-Jul-27 23:33N 35°31' E 139°59'5 5.4
2014-Jul-27 22:33N 35°29' E 139°53'1110.6
2014-Jul-27 21:34N 35°21' E 139°45'1010.5
2014-Jul-27 20:34N 35°11' E 139°46'1211.5
2014-Jul-27 19:34N 35°01' E 139°38'1311.5
2014-Jul-27 18:27N 34°53' E 139°25'4311.0
2014-Jul-27 14:33N 34°34' E 138°39'183 8.9
2014-Jul-26 18:04N 34°14' E 134°58'1912.1
2014-Jul-26 16:31N 34°33' E 135°02'29 0.7
2014-Jul-24 20:24N 34°07' E 134°46'1110.9
2014-Jul-24 19:21N 33°59' E 134°56'213 8.9
2014-Jul-23 19:30N 34°49' E 139°08'21 9.9
2014-Jul-23 17:22N 35°02' E 139°28'8 9.8
2014-Jul-23 16:33N 35°06' E 139°37'1010.0
2014-Jul-23 15:33N 35°12' E 139°46'10 9.9
2014-Jul-23 14:33N 35°22' E 139°43'1010.0
2014-Jul-23 13:33N 35°29' E 139°51'9 9.2
2014-Jul-23 12:33N 35°30' E 140°02'0 0.0
2014-Jul-23 11:33N 35°30' E 140°02'0 0.0
2014-Jul-23 10:33N 35°30' E 140°02'0 0.0
2014-Jul-23 09:33N 35°30' E 140°02'0 0.0
2014-Jul-23 08:33N 35°30' E 140°02'0 0.0
2014-Jul-23 07:33N 35°30' E 140°02'0 0.0
2014-Jul-23 06:33N 35°30' E 140°02'0 0.0
2014-Jul-23 05:33N 35°30' E 140°02'0 0.0
2014-Jul-23 04:33N 35°30' E 140°02'0 0.0
2014-Jul-23 03:33N 35°30' E 140°02'0 0.0
2014-Jul-23 02:33N 35°30' E 140°02'0 0.0
2014-Jul-23 01:33N 35°30' E 140°02'0 0.1
2014-Jul-23 00:33N 35°30' E 140°02'2 2.3
2014-Jul-22 23:33N 35°31' E 139°60'0 0.0
2014-Jul-22 22:33N 35°31' E 139°60'1010.3
2014-Jul-22 21:33N 35°26' E 139°49'1010.0
2014-Jul-22 20:33N 35°16' E 139°46'1110.9
2014-Jul-22 19:34N 35°05' E 139°44'1312.4
2014-Jul-22 18:31N 34°57' E 139°32'229 9.0
2014-Jul-21 17:09N 34°13' E 134°58'811.5
2014-Jul-21 16:30N 34°21' E 134°59'1111.1
2014-Jul-21 15:29N 34°32' E 135°02'8 7.6
2014-Jul-21 14:26N 34°35' E 134°53'  

Dump ship's entire track history